Weather at Ayres De Pilar Heliport

Public forecast

Using degrees Celsius for public forecast. Weather courtesy of forecast.io.

Closest aviation weather report (METAR) to Ayres De Pilar Heliport

Closest report is San Fernando Airport, 10.4 nm (19.2 km) E.

2024/05/30 18:00 (retrieved 39 minutes ago)

SADF 301800Z 35003KT 290V040 9999 SCT047 17/09 Q1022

Closest aviation forecast (TAF) to Ayres De Pilar Heliport

Closest forecast is San Fernando Airport, 10.4 nm (19.2 km) E.

2024/05/30 18:03 (retrieved 36 minutes ago)

TAF TAF SADF 301700Z 3018/3118 32005KT 9999 BKN045 TX17/3118Z TN10/3110Z BECMG 3020/3022 07005KT BECMG 3101/3103 CAVOK PROB30 TEMPO 3106/3112 5000 BR BKN010 BECMG 3113/3115 02010KT 9999 SCT040